Time;durP1;ratioP1;P1;durP2;ratioP2;P2;SDS_P1;SDS_P2;PMS_P1;PMS_P2;Temp;Humidity;BMP_temperature;BMP_pressure;BME280_temperature;BME280_humidity;BME280_pressure;Samples;Min_cycle;Max_cycle;Signal;HPM_P1;HPM_P2
2022/12/21 00:00:15;;;;;;;95.43;35.83;;;;;;;-0.22;95.86;99226.28;8451098;28;20057;-73
2022/12/21 00:04:36;;;;;;;99.53;35.05;;;;;;;-0.21;96.24;99246.50;8454734;28;20462;-73
2022/12/21 00:08:43;;;;;;;102.53;35.45;;;;;;;-0.22;96.10;99247.53;8439548;28;20052;-72
2022/12/21 00:12:44;;;;;;;104.28;33.65;;;;;;;-0.24;96.23;99238.97;8434718;28;20078;-73
2022/12/21 00:16:45;;;;;;;104.22;35.70;;;;;;;-0.22;96.36;99239.56;8409586;28;20052;-74
2022/12/21 00:20:57;;;;;;;97.45;34.75;;;;;;;-0.20;95.67;99245.44;8456419;28;20040;-72
2022/12/21 00:24:57;;;;;;;103.65;38.08;;;;;;;-0.16;95.74;99242.06;8456198;28;20039;-74
2022/12/21 00:28:59;;;;;;;98.95;36.28;;;;;;;-0.17;96.09;99239.66;8417490;28;20059;-73
2022/12/21 00:33:00;;;;;;;96.63;35.55;;;;;;;-0.17;95.57;99213.13;8435783;28;20055;-72
2022/12/21 00:37:03;;;;;;;104.00;37.40;;;;;;;-0.17;96.06;99223.75;8451167;28;20055;-73
2022/12/21 00:41:06;;;;;;;92.18;34.50;;;;;;;-0.18;95.73;99216.81;8454681;28;20052;-72
2022/12/21 00:45:08;;;;;;;89.22;34.55;;;;;;;-0.16;95.74;99212.09;8456007;28;20069;-73
2022/12/21 00:49:09;;;;;;;87.25;34.25;;;;;;;-0.10;95.79;99213.78;8429690;28;20043;-73
2022/12/21 00:53:10;;;;;;;92.50;33.38;;;;;;;-0.12;96.05;99210.56;8408810;28;20059;-72
2022/12/21 00:57:11;;;;;;;89.38;33.70;;;;;;;-0.14;95.50;99223.25;8446943;28;20040;-72
2022/12/21 01:01:13;;;;;;;93.40;34.83;;;;;;;-0.15;95.93;99237.56;8449643;28;20489;-72
2022/12/21 01:05:14;;;;;;;94.60;34.42;;;;;;;-0.17;96.06;99221.91;8451538;28;20051;-72
2022/12/21 01:09:15;;;;;;;95.07;33.30;;;;;;;-0.19;95.75;99231.13;8451110;28;20626;-73
2022/12/21 01:13:16;;;;;;;87.50;33.38;;;;;;;-0.21;95.64;99238.53;8445094;28;20048;-73
2022/12/21 01:17:17;;;;;;;83.30;32.42;;;;;;;-0.22;96.02;99242.22;8444196;28;20055;-73
2022/12/21 01:21:21;;;;;;;85.55;32.58;;;;;;;-0.21;95.92;99238.53;8456356;28;20050;-73
2022/12/21 01:25:22;;;;;;;92.53;33.00;;;;;;;-0.15;95.65;99197.75;8454067;28;20731;-72
2022/12/21 01:29:23;;;;;;;86.47;32.33;;;;;;;-0.16;96.02;99214.75;8447389;28;20552;-73
2022/12/21 01:33:24;;;;;;;84.22;31.15;;;;;;;-0.10;95.73;99203.16;8433266;28;20036;-72
2022/12/21 01:37:25;;;;;;;87.57;32.15;;;;;;;-0.07;95.26;99223.94;8456903;28;20234;-73
2022/12/21 01:41:27;;;;;;;85.70;30.75;;;;;;;-0.09;95.69;99223.34;8455690;28;20043;-73
2022/12/21 01:45:32;;;;;;;82.43;31.58;;;;;;;-0.09;95.47;99204.78;8446305;28;20056;-73
2022/12/21 01:49:33;;;;;;;90.60;32.70;;;;;;;-0.09;95.73;99183.53;8438732;28;20074;-72
2022/12/21 01:53:38;;;;;;;89.82;31.85;;;;;;;-0.07;95.17;99170.84;8462003;28;20097;-72
2022/12/21 01:57:40;;;;;;;89.95;32.65;;;;;;;-0.07;95.39;99144.28;8445028;28;20051;-72
2022/12/21 02:01:40;;;;;;;83.97;33.08;;;;;;;-0.08;95.44;99153.28;8456705;28;20043;-72
2022/12/21 02:05:44;;;;;;;95.75;32.92;;;;;;;-0.13;95.62;99155.84;8458132;28;20105;-72
2022/12/21 02:09:45;;;;;;;85.22;32.65;;;;;;;-0.10;95.83;99166.00;8449732;28;20055;-72
2022/12/21 02:13:46;;;;;;;90.50;32.42;;;;;;;-0.09;95.39;99172.91;8459843;28;20036;-72
2022/12/21 02:18:04;;;;;;;90.93;31.92;;;;;;;-0.09;95.31;99173.72;8453762;28;20481;-73
2022/12/21 02:22:27;;;;;;;91.60;32.83;;;;;;;-0.16;95.57;99164.31;8430369;28;20059;-73
2022/12/21 02:26:47;;;;;;;82.68;31.70;;;;;;;-0.15;95.64;99181.81;8455263;28;20104;-73
2022/12/21 02:31:10;;;;;;;81.97;30.60;;;;;;;-0.10;96.00;99171.31;8452652;28;20047;-73
2022/12/21 02:35:29;;;;;;;94.68;33.30;;;;;;;-0.09;95.70;99183.53;8446139;28;20044;-73
2022/12/21 02:39:45;;;;;;;75.30;29.20;;;;;;;-0.14;95.83;99191.41;8440106;28;20048;-72
2022/12/21 02:48:29;;;;;;;79.68;30.55;;;;;;;-0.18;96.46;99179.66;8457543;28;20044;-73
2022/12/21 02:52:51;;;;;;;81.90;30.52;;;;;;;-0.22;96.70;99183.84;8394295;28;20047;-73
2022/12/21 02:56:52;;;;;;;86.90;30.67;;;;;;;-0.26;96.78;99185.31;8444979;28;20402;-74
2022/12/21 03:00:53;;;;;;;83.63;30.30;;;;;;;-0.24;96.62;99169.97;8459313;28;20052;-72
2022/12/21 03:05:29;;;;;;;80.93;29.77;;;;;;;-0.22;97.09;99167.91;8424080;28;20093;-72
2022/12/21 03:09:38;;;;;;;74.78;28.60;;;;;;;-0.23;96.75;99155.69;8432440;28;20052;-72
2022/12/21 03:13:51;;;;;;;79.93;30.15;;;;;;;-0.16;96.75;99140.41;8429449;28;20060;-73
2022/12/21 03:18:03;;;;;;;82.93;27.98;;;;;;;-0.12;96.13;99141.56;8432579;28;20481;-73
2022/12/21 03:22:09;;;;;;;78.70;29.42;;;;;;;-0.09;95.91;99135.75;8430923;28;20044;-73
2022/12/21 03:26:17;;;;;;;83.28;30.15;;;;;;;-0.11;96.21;99143.16;8431244;28;20044;-73
2022/12/21 03:30:20;;;;;;;84.03;30.23;;;;;;;-0.15;95.86;99142.00;8408022;28;20043;-73
2022/12/21 03:34:25;;;;;;;82.03;31.02;;;;;;;-0.20;96.31;99155.19;8431046;28;20390;-73
2022/12/21 03:38:36;;;;;;;81.43;29.85;;;;;;;-0.17;96.61;99165.34;8430561;28;20122;-74
2022/12/21 03:42:41;;;;;;;81.88;30.75;;;;;;;-0.17;96.23;99160.03;8432713;28;20528;-73
2022/12/21 03:46:58;;;;;;;84.75;30.30;;;;;;;-0.20;96.82;99155.19;8428923;28;20113;-72
2022/12/21 03:51:05;;;;;;;75.30;28.52;;;;;;;-0.17;96.89;99139.63;8390647;28;20075;-73
2022/12/21 03:55:13;;;;;;;81.22;29.33;;;;;;;-0.15;96.88;99147.31;8388694;28;20048;-72
2022/12/21 03:59:15;;;;;;;82.90;28.48;;;;;;;-0.05;96.76;99126.25;8392339;28;20133;-72
2022/12/21 04:03:27;;;;;;;78.93;29.35;;;;;;;-0.03;96.73;99118.88;8397763;28;20040;-73
2022/12/21 04:07:29;;;;;;;84.35;28.50;;;;;;;0.01;96.21;99125.31;8367524;28;20055;-72
2022/12/21 04:16:03;;;;;;;73.30;28.02;;;;;;;0.04;96.55;99108.91;8391965;28;20507;-72
2022/12/21 04:20:07;;;;;;;76.57;28.38;;;;;;;0.09;96.84;99098.38;8368924;28;20035;-72
2022/12/21 04:28:30;;;;;;;72.20;28.02;;;;;;;0.13;97.04;99134.03;8433339;28;20176;-73
2022/12/21 04:32:30;;;;;;;71.55;27.23;;;;;;;0.14;97.23;99125.00;8433759;28;20188;-73
2022/12/21 04:40:53;;;;;;;75.65;28.70;;;;;;;0.22;97.23;99127.25;8434023;28;20056;-72
2022/12/21 04:44:54;;;;;;;83.25;29.88;;;;;;;0.26;97.10;99114.31;8433205;28;20498;-72
2022/12/21 04:48:55;;;;;;;79.43;29.60;;;;;;;0.25;97.71;99100.22;8425849;28;20048;-73
2022/12/21 04:52:56;;;;;;;75.60;26.83;;;;;;;0.26;98.37;99101.84;8434173;28;20050;-72
2022/12/21 04:56:57;;;;;;;84.97;30.60;;;;;;;0.26;98.70;99096.53;8432691;28;20047;-73
2022/12/21 05:00:58;;;;;;;81.38;28.30;;;;;;;0.19;99.60;99085.25;8405179;28;20180;-73
2022/12/21 05:04:59;;;;;;;90.95;29.85;;;;;;;0.18;99.49;99075.69;8434955;28;20046;-72
2022/12/21 05:09:01;;;;;;;83.90;29.50;;;;;;;0.16;99.83;99075.09;8434711;28;20596;-73
2022/12/21 05:13:02;;;;;;;88.15;30.85;;;;;;;0.15;100.00;99083.31;8436281;28;20048;-73
2022/12/21 05:17:03;;;;;;;92.05;34.67;;;;;;;0.15;100.00;99070.06;8431061;28;20406;-74
2022/12/21 05:21:04;;;;;;;83.85;29.40;;;;;;;0.14;100.00;99063.94;8430514;28;20386;-73
2022/12/21 05:25:05;;;;;;;85.75;32.88;;;;;;;0.09;100.00;99069.16;8444203;28;20040;-74
2022/12/21 05:29:07;;;;;;;84.53;31.65;;;;;;;0.05;100.00;99067.25;8450623;28;20528;-75
2022/12/21 05:33:08;;;;;;;85.15;32.42;;;;;;;0.03;100.00;99064.81;8455759;28;20051;-73
2022/12/21 05:37:09;;;;;;;83.07;30.95;;;;;;;-0.02;100.00;99056.78;8381778;28;20052;-72
2022/12/21 05:41:11;;;;;;;83.80;31.75;;;;;;;-0.06;100.00;99066.28;8438990;28;20059;-74
2022/12/21 05:45:12;;;;;;;85.72;29.00;;;;;;;-0.05;100.00;99067.84;8436248;28;20478;-73
2022/12/21 05:49:13;;;;;;;84.32;30.70;;;;;;;-0.01;100.00;99058.38;8419962;28;20054;-74
2022/12/21 05:53:15;;;;;;;86.15;30.58;;;;;;;-0.01;100.00;99063.69;8436936;28;20040;-74
2022/12/21 05:57:15;;;;;;;84.50;30.05;;;;;;;0.04;100.00;99077.06;8460519;28;20078;-73
2022/12/21 06:01:17;;;;;;;98.25;38.10;;;;;;;0.03;100.00;99070.13;8452010;27;20074;-72
2022/12/21 06:05:17;;;;;;;99.32;41.65;;;;;;;0.06;100.00;99080.25;8452766;28;20039;-72
2022/12/21 06:09:18;;;;;;;86.22;31.30;;;;;;;0.08;100.00;99078.16;8440827;28;20062;-72
2022/12/21 06:13:20;;;;;;;85.88;33.00;;;;;;;0.09;100.00;99087.75;8445431;28;20039;-72
2022/12/21 06:17:21;;;;;;;95.97;39.20;;;;;;;0.10;100.00;99076.09;8465047;28;20155;-73
2022/12/21 06:21:22;;;;;;;82.93;31.75;;;;;;;0.13;100.00;99075.59;8451850;28;20059;-72
2022/12/21 06:25:23;;;;;;;80.65;30.48;;;;;;;0.18;100.00;99088.94;8464610;28;20096;-73
2022/12/21 06:29:24;;;;;;;82.38;29.40;;;;;;;0.23;100.00;99097.00;8450175;28;20046;-72
2022/12/21 06:33:25;;;;;;;74.90;27.80;;;;;;;0.27;100.00;99081.38;8451662;28;20048;-73
2022/12/21 06:37:27;;;;;;;92.05;32.80;;;;;;;0.23;100.00;99089.03;8448011;28;20047;-72
2022/12/21 06:41:28;;;;;;;89.95;32.85;;;;;;;0.25;100.00;99086.94;8451417;28;20048;-74
2022/12/21 06:45:29;;;;;;;78.68;30.77;;;;;;;0.27;100.00;99098.13;8461620;28;20508;-72
2022/12/21 06:49:30;;;;;;;88.88;34.58;;;;;;;0.27;100.00;99086.69;8445347;28;20378;-72
2022/12/21 06:53:33;;;;;;;87.35;31.92;;;;;;;0.30;100.00;99087.03;8464405;28;20108;-73
2022/12/21 06:57:34;;;;;;;100.32;36.25;;;;;;;0.30;100.00;99092.34;8462566;28;20055;-73
2022/12/21 07:01:35;;;;;;;102.68;35.25;;;;;;;0.33;100.00;99075.91;8452942;28;20056;-74
2022/12/21 07:05:36;;;;;;;91.10;34.20;;;;;;;0.38;100.00;99075.97;8448181;28;20134;-73
2022/12/21 07:09:37;;;;;;;94.60;33.88;;;;;;;0.40;100.00;99087.19;8460854;28;20059;-72
2022/12/21 07:13:41;;;;;;;79.82;30.90;;;;;;;0.51;100.00;99076.69;8451064;28;20048;-72
2022/12/21 07:17:45;;;;;;;86.55;32.35;;;;;;;0.59;100.00;99069.09;8455524;28;20048;-72
2022/12/21 07:21:46;;;;;;;81.47;29.88;;;;;;;0.65;100.00;99083.25;8460743;28;20047;-73
2022/12/21 07:25:47;;;;;;;79.75;29.35;;;;;;;0.65;100.00;99083.25;8443811;28;20052;-73
2022/12/21 07:29:48;;;;;;;91.63;30.92;;;;;;;0.66;100.00;99082.22;8456207;28;20493;-74
2022/12/21 07:33:50;;;;;;;85.20;30.40;;;;;;;0.60;100.00;99086.66;8411994;28;20052;-73
2022/12/21 07:37:51;;;;;;;81.45;29.17;;;;;;;0.65;100.00;99088.59;8450573;28;20070;-72
2022/12/21 07:41:52;;;;;;;83.63;31.23;;;;;;;0.66;100.00;99075.06;8441478;28;20151;-74
2022/12/21 07:45:53;;;;;;;78.68;31.77;;;;;;;0.71;100.00;99087.59;8430441;28;20093;-73
2022/12/21 07:49:55;;;;;;;77.20;28.52;;;;;;;0.73;100.00;99075.69;8415132;28;20150;-74
2022/12/21 07:53:56;;;;;;;77.97;29.35;;;;;;;0.77;100.00;99081.31;8431971;28;20051;-72
2022/12/21 07:57:57;;;;;;;72.00;27.52;;;;;;;0.80;100.00;99092.25;8453916;28;20124;-73
2022/12/21 08:01:58;;;;;;;74.10;25.63;;;;;;;0.91;100.00;99082.56;8416690;28;20411;-72
2022/12/21 08:06:00;;;;;;;72.93;26.45;;;;;;;0.97;100.00;99086.09;8452565;28;20070;-73
2022/12/21 08:10:01;;;;;;;66.10;25.92;;;;;;;1.06;100.00;99074.75;8458444;28;20056;-75
2022/12/21 08:14:02;;;;;;;58.90;24.83;;;;;;;1.15;99.53;99080.47;8416254;28;20075;-72
2022/12/21 08:18:03;;;;;;;65.13;26.88;;;;;;;1.12;98.96;99079.09;8442450;28;20044;-73
2022/12/21 08:22:05;;;;;;;72.72;29.70;;;;;;;1.09;99.51;99087.59;8448331;28;20052;-73
2022/12/21 08:26:09;;;;;;;69.15;26.63;;;;;;;1.11;99.44;99092.66;8436294;28;20086;-72
2022/12/21 08:30:10;;;;;;;66.13;26.20;;;;;;;1.17;99.19;99087.13;8448803;28;20036;-72
2022/12/21 08:34:12;;;;;;;68.95;28.33;;;;;;;1.16;99.46;99109.47;8438173;28;20036;-72
2022/12/21 08:38:13;;;;;;;73.88;29.17;;;;;;;1.12;99.59;99111.03;8454637;28;20085;-73
2022/12/21 08:42:14;;;;;;;64.70;26.77;;;;;;;1.16;99.32;99101.47;8439217;28;20127;-72
2022/12/21 08:46:15;;;;;;;66.68;25.95;;;;;;;1.24;99.21;99109.03;8417116;28;20047;-72
2022/12/21 08:50:16;;;;;;;61.55;24.25;;;;;;;1.31;98.20;99108.88;8448348;28;20065;-72
2022/12/21 08:54:17;;;;;;;57.50;22.70;;;;;;;1.43;97.82;99100.75;8443844;28;20043;-74
2022/12/21 08:58:19;;;;;;;55.67;23.73;;;;;;;1.45;97.01;99098.63;8451051;28;20047;-72
2022/12/21 09:02:20;;;;;;;59.88;23.85;;;;;;;1.51;96.73;99092.31;8437335;28;20052;-73
2022/12/21 09:06:21;;;;;;;65.38;23.75;;;;;;;1.56;96.17;99074.53;8447414;28;20044;-73
2022/12/21 09:10:22;;;;;;;60.42;23.10;;;;;;;1.62;95.02;99072.75;8447459;28;20104;-73
2022/12/21 09:14:25;;;;;;;60.47;24.55;;;;;;;1.63;95.17;99069.03;8444387;28;20302;-73
2022/12/21 09:18:26;;;;;;;61.00;24.30;;;;;;;1.68;95.14;99071.75;8423187;28;20048;-73
2022/12/21 09:22:27;;;;;;;60.70;23.20;;;;;;;1.73;94.82;99074.44;8448254;28;20055;-72
2022/12/21 09:26:28;;;;;;;58.03;22.95;;;;;;;1.86;94.36;99079.34;8460073;28;20378;-73
2022/12/21 09:30:30;;;;;;;57.47;24.42;;;;;;;1.94;93.85;99065.59;8418573;28;20173;-73
2022/12/21 09:34:31;;;;;;;59.80;23.45;;;;;;;2.00;93.24;99064.59;8453766;28;20043;-72
2022/12/21 09:38:32;;;;;;;59.63;22.73;;;;;;;1.98;92.84;99061.34;8458124;28;20048;-72
2022/12/21 09:43:04;;;;;;;54.95;23.45;;;;;;;1.97;92.92;99065.06;8436320;28;20409;-72
2022/12/21 09:47:09;;;;;;;64.15;23.98;;;;;;;1.96;93.08;99068.78;8456407;28;20050;-74
2022/12/21 09:51:15;;;;;;;58.25;23.13;;;;;;;1.96;93.35;99058.13;8450100;28;20134;-73
2022/12/21 09:55:19;;;;;;;57.85;23.35;;;;;;;1.98;93.37;99061.34;8458742;28;20387;-72
2022/12/21 09:59:21;;;;;;;59.35;23.70;;;;;;;2.06;93.17;99063.53;8412776;28;20055;-72
2022/12/21 10:03:31;;;;;;;56.42;22.80;;;;;;;2.15;92.44;99055.91;8440518;28;20055;-72
2022/12/21 10:07:57;;;;;;;62.38;25.20;;;;;;;2.21;92.32;99048.75;8437192;28;20076;-72
2022/12/21 10:12:14;;;;;;;68.03;25.98;;;;;;;2.13;92.19;99045.50;8437499;28;20529;-73
2022/12/21 10:16:45;;;;;;;56.90;23.88;;;;;;;2.09;92.29;99041.75;8449796;28;20125;-73
2022/12/21 10:20:58;;;;;;;58.38;24.90;;;;;;;2.07;92.33;99046.50;8445803;28;20071;-72
2022/12/21 10:25:01;;;;;;;68.05;24.55;;;;;;;2.13;92.52;99042.81;8451807;28;20051;-72
2022/12/21 10:29:16;;;;;;;63.72;25.88;;;;;;;2.04;92.80;99044.38;8454589;28;20059;-72
2022/12/21 10:33:20;;;;;;;67.65;27.65;;;;;;;2.03;92.98;99042.75;8461176;28;20062;-72
2022/12/21 10:37:22;;;;;;;66.88;24.63;;;;;;;2.06;92.75;99050.22;8455270;28;20478;-72
2022/12/21 10:41:27;;;;;;;71.80;28.42;;;;;;;2.07;92.75;99038.50;8458621;28;20506;-73
2022/12/21 10:45:28;;;;;;;73.60;27.95;;;;;;;2.11;92.99;99034.28;8417107;28;20036;-73
2022/12/21 10:49:35;;;;;;;64.05;26.20;;;;;;;2.13;93.24;99036.69;8453230;28;20055;-72
2022/12/21 10:53:36;;;;;;;66.32;27.65;;;;;;;2.06;93.51;99028.91;8421141;28;20036;-72
2022/12/21 10:57:37;;;;;;;138.60;49.90;;;;;;;2.04;93.67;99031.03;8442881;28;20044;-73
2022/12/21 11:01:38;;;;;;;162.68;50.38;;;;;;;2.00;93.90;99027.28;8448353;28;20500;-73
2022/12/21 11:05:41;;;;;;;77.72;30.77;;;;;;;1.97;94.52;99027.78;8455365;28;20092;-73
2022/12/21 11:09:42;;;;;;;93.85;33.58;;;;;;;1.92;95.65;99030.41;8442208;28;20052;-72
2022/12/21 11:13:56;;;;;;;88.45;30.52;;;;;;;1.94;95.92;99028.31;8442202;28;20054;-72
2022/12/21 11:17:57;;;;;;;74.82;29.23;;;;;;;1.91;97.16;99020.81;8444369;28;20143;-72
2022/12/21 11:21:59;;;;;;;79.13;31.23;;;;;;;1.89;98.02;99014.94;8449783;28;20048;-72
2022/12/21 11:26:00;;;;;;;68.95;26.92;;;;;;;1.89;98.37;99020.28;8453184;28;20053;-72
2022/12/21 11:30:06;;;;;;;166.52;47.63;;;;;;;1.88;98.35;99013.34;8446750;28;20040;-72
2022/12/21 11:34:49;;;;;;;116.05;36.05;;;;;;;1.67;99.69;99008.91;8378240;28;20053;-74
2022/12/21 11:38:51;;;;;;;91.32;33.75;;;;;;;1.77;99.72;99005.50;8292700;28;20558;-72
2022/12/21 11:43:02;;;;;;;89.78;33.45;;;;;;;1.77;99.88;99011.66;8291870;28;20512;-73
2022/12/21 11:47:19;;;;;;;118.72;39.00;;;;;;;1.69;100.00;99017.44;8291116;28;20057;-72
2022/12/21 11:51:29;;;;;;;83.80;31.80;;;;;;;1.71;100.00;99017.97;8291628;28;20054;-72
2022/12/21 11:55:59;;;;;;;66.55;27.40;;;;;;;1.77;100.00;99022.28;8267947;28;20049;-73
2022/12/21 12:00:10;;;;;;;99.85;36.33;;;;;;;1.73;100.00;99010.56;8290248;28;20500;-72
2022/12/21 12:04:30;;;;;;;142.88;42.40;;;;;;;1.67;100.00;99000.91;8286714;28;20085;-71
2022/12/21 12:09:09;;;;;;;131.77;42.95;;;;;;;1.59;100.00;98999.50;8279032;28;20045;-72
2022/12/21 12:13:10;;;;;;;103.65;37.65;;;;;;;1.56;100.00;99005.34;8352178;28;20040;-72
2022/12/21 12:17:20;;;;;;;114.43;42.92;;;;;;;1.56;100.00;99004.53;8455517;28;20511;-72
2022/12/21 12:21:53;;;;;;;113.20;45.00;;;;;;;1.53;100.00;99010.38;8459149;28;20044;-72
2022/12/21 12:26:13;;;;;;;100.90;39.60;;;;;;;1.49;100.00;99001.28;8457261;28;20051;-72
2022/12/21 12:30:21;;;;;;;89.53;34.85;;;;;;;1.50;100.00;99000.22;8457937;28;20050;-73
2022/12/21 12:34:53;;;;;;;82.93;33.17;;;;;;;1.50;100.00;98994.91;8423683;28;20743;-74
2022/12/21 12:39:15;;;;;;;98.18;36.42;;;;;;;1.54;100.00;98990.66;8453885;28;20060;-73
2022/12/21 12:43:32;;;;;;;84.55;33.28;;;;;;;1.53;100.00;98989.09;8417059;28;20055;-72
2022/12/21 12:47:54;;;;;;;103.60;40.15;;;;;;;1.50;100.00;98979.72;8437773;28;20478;-72
2022/12/21 12:52:30;;;;;;;95.28;36.47;;;;;;;1.49;100.00;98972.00;8443990;28;20063;-72
2022/12/21 12:56:59;;;;;;;83.78;33.15;;;;;;;1.52;100.00;98982.16;8388276;28;20135;-72
2022/12/21 13:01:04;;;;;;;90.10;32.17;;;;;;;1.56;100.00;98976.06;8388937;28;20578;-73
2022/12/21 13:05:29;;;;;;;89.82;34.45;;;;;;;1.56;100.00;98977.94;8370744;28;20071;-73
2022/12/21 13:09:43;;;;;;;80.50;32.13;;;;;;;1.49;100.00;98977.31;8386668;28;20067;-73
2022/12/21 13:13:56;;;;;;;87.88;34.95;;;;;;;1.44;100.00;98982.59;8378427;28;20044;-73
2022/12/21 13:18:14;;;;;;;97.05;37.58;;;;;;;1.49;100.00;98972.00;8387039;28;20184;-72
2022/12/21 13:22:17;;;;;;;89.57;34.87;;;;;;;1.53;100.00;98983.75;8387317;28;20131;-72
2022/12/21 13:26:26;;;;;;;92.95;35.05;;;;;;;1.52;100.00;98976.84;8370265;28;20605;-72
2022/12/21 13:30:28;;;;;;;88.32;35.63;;;;;;;1.52;100.00;98971.50;8414376;28;20112;-73
2022/12/21 13:34:33;;;;;;;81.72;32.65;;;;;;;1.53;100.00;98978.44;8440294;28;20071;-71
2022/12/21 13:38:47;;;;;;;85.40;33.40;;;;;;;1.56;100.00;98973.41;8453878;28;20051;-72
2022/12/21 13:43:01;;;;;;;90.05;32.83;;;;;;;1.57;100.00;98972.34;8446444;28;20059;-72
2022/12/21 13:47:03;;;;;;;75.78;31.05;;;;;;;1.53;100.00;98967.78;8438165;28;20055;-72
2022/12/21 13:51:27;;;;;;;80.13;33.75;;;;;;;1.56;100.00;98972.59;8447891;28;20058;-72
2022/12/21 13:55:47;;;;;;;86.10;34.53;;;;;;;1.57;100.00;98968.88;8414237;28;20047;-76
2022/12/21 14:00:03;;;;;;;171.27;55.67;;;;;;;1.56;100.00;98977.94;8456720;28;20078;-72
2022/12/21 14:04:38;;;;;;;82.38;33.03;;;;;;;1.54;100.00;98974.69;8445040;28;20131;-71
2022/12/21 14:09:06;;;;;;;88.15;33.22;;;;;;;1.58;100.00;98970.50;8447322;28;20048;-73
2022/12/21 14:13:22;;;;;;;94.93;34.83;;;;;;;1.62;100.00;98971.59;8308785;28;20552;-72
2022/12/21 14:17:32;;;;;;;91.25;34.83;;;;;;;1.64;100.00;98980.09;8310643;28;20049;-72
2022/12/21 14:21:34;;;;;;;154.13;45.50;;;;;;;1.67;100.00;98968.97;8290781;28;20041;-74
2022/12/21 14:25:45;;;;;;;137.15;50.53;;;;;;;1.62;100.00;98971.59;8322116;28;20050;-72
2022/12/21 14:29:46;;;;;;;108.40;41.33;;;;;;;1.65;100.00;98976.41;8320925;28;20116;-73
2022/12/21 14:33:51;;;;;;;136.23;48.15;;;;;;;1.62;100.00;98971.59;8323051;28;20049;-72
2022/12/21 14:38:27;;;;;;;110.82;41.38;;;;;;;1.64;100.00;98980.09;8280179;28;20050;-73
2022/12/21 14:42:49;;;;;;;84.72;34.13;;;;;;;1.66;100.00;98972.69;8324784;28;20053;-73
2022/12/21 14:47:22;;;;;;;77.03;33.90;;;;;;;1.69;100.00;98961.53;8317841;28;20064;-73
2022/12/21 14:51:50;;;;;;;90.25;35.45;;;;;;;1.69;100.00;98972.19;8456794;28;20295;-71
2022/12/21 14:56:13;;;;;;;93.65;38.47;;;;;;;1.64;100.00;98964.13;8430320;28;20051;-72
2022/12/21 15:00:19;;;;;;;96.35;37.58;;;;;;;1.71;100.00;98970.06;8444732;28;20055;-73
2022/12/21 15:04:24;;;;;;;125.63;48.80;;;;;;;1.66;100.00;98967.34;8401438;28;22260;-72
